sensor_id;sensor_type;location;lat;lon;timestamp;pressure;altitude;pressure_sealevel;temperature;humidity
8280;BME280;8335;42.646;23.380;2023-04-04T00:00:39;143571.13;;;8.00;100.00
8280;BME280;8335;42.646;23.380;2023-04-04T00:03:06;143578.53;;;8.04;100.00
8280;BME280;8335;42.646;23.380;2023-04-04T00:05:32;143588.50;;;8.08;100.00
8280;BME280;8335;42.646;23.380;2023-04-04T00:08:01;143595.91;;;8.11;100.00
8280;BME280;8335;42.646;23.380;2023-04-04T00:10:27;143608.31;;;8.16;100.00
8280;BME280;8335;42.646;23.380;2023-04-04T00:12:54;143599.63;;;8.12;100.00
8280;BME280;8335;42.646;23.380;2023-04-04T00:15:21;143612.03;;;8.17;100.00
8280;BME280;8335;42.646;23.380;2023-04-04T00:17:48;143614.50;;;8.18;100.00
8280;BME280;8335;42.646;23.380;2023-04-04T00:20:15;143624.47;;;8.22;100.00
8280;BME280;8335;42.646;23.380;2023-04-04T00:22:41;143638.06;;;8.28;100.00
8280;BME280;8335;42.646;23.380;2023-04-04T00:25:10;143633.13;;;8.26;100.00
8280;BME280;8335;42.646;23.380;2023-04-04T00:27:36;143639.31;;;8.28;100.00
8280;BME280;8335;42.646;23.380;2023-04-04T00:30:04;143650.50;;;8.33;100.00
8280;BME280;8335;42.646;23.380;2023-04-04T00:32:31;143652.97;;;8.34;100.00
8280;BME280;8335;42.646;23.380;2023-04-04T00:34:57;143651.72;;;8.34;100.00
8280;BME280;8335;42.646;23.380;2023-04-04T00:37:24;143638.06;;;8.28;100.00
8280;BME280;8335;42.646;23.380;2023-04-04T00:39:52;143641.84;;;8.30;100.00
8280;BME280;8335;42.646;23.380;2023-04-04T00:42:20;143630.66;;;8.25;100.00
8280;BME280;8335;42.646;23.380;2023-04-04T00:44:47;143635.59;;;8.27;100.00
8280;BME280;8335;42.646;23.380;2023-04-04T00:47:14;143631.88;;;8.25;100.00
8280;BME280;8335;42.646;23.380;2023-04-04T00:49:40;143650.50;;;8.33;100.00
8280;BME280;8335;42.646;23.380;2023-04-04T00:52:07;143662.97;;;8.38;100.00
8280;BME280;8335;42.646;23.380;2023-04-04T00:54:35;143640.59;;;8.29;100.00
8280;BME280;8335;42.646;23.380;2023-04-04T00:57:02;143649.25;;;8.33;100.00
8280;BME280;8335;42.646;23.380;2023-04-04T00:59:33;143652.97;;;8.34;100.00
8280;BME280;8335;42.646;23.380;2023-04-04T01:02:00;143648.03;;;8.32;100.00
8280;BME280;8335;42.646;23.380;2023-04-04T01:04:27;143654.22;;;8.35;100.00
8280;BME280;8335;42.646;23.380;2023-04-04T01:06:55;143651.72;;;8.34;100.00
8280;BME280;8335;42.646;23.380;2023-04-04T01:09:22;143656.72;;;8.36;100.00
8280;BME280;8335;42.646;23.380;2023-04-04T01:11:49;143664.19;;;8.39;100.00
8280;BME280;8335;42.646;23.380;2023-04-04T01:14:16;143665.44;;;8.39;100.00
8280;BME280;8335;42.646;23.380;2023-04-04T01:16:44;143655.50;;;8.35;100.00
8280;BME280;8335;42.646;23.380;2023-04-04T01:19:16;143660.50;;;8.37;100.00
8280;BME280;8335;42.646;23.380;2023-04-04T01:21:45;143664.19;;;8.39;100.00
8280;BME280;8335;42.646;23.380;2023-04-04T01:24:15;143665.44;;;8.39;100.00
8280;BME280;8335;42.646;23.380;2023-04-04T01:26:43;143664.19;;;8.39;100.00
8280;BME280;8335;42.646;23.380;2023-04-04T01:29:11;143667.91;;;8.40;100.00
8280;BME280;8335;42.646;23.380;2023-04-04T01:31:41;143635.59;;;8.27;100.00
8280;BME280;8335;42.646;23.380;2023-04-04T01:34:18;143633.13;;;8.26;100.00
8280;BME280;8335;42.646;23.380;2023-04-04T01:36:55;143629.41;;;8.24;100.00
8280;BME280;8335;42.646;23.380;2023-04-04T01:39:26;143629.41;;;8.24;100.00
8280;BME280;8335;42.646;23.380;2023-04-04T01:42:00;143620.72;;;8.21;100.00
8280;BME280;8335;42.646;23.380;2023-04-04T01:44:28;143614.50;;;8.18;100.00
8280;BME280;8335;42.646;23.380;2023-04-04T01:46:55;143597.16;;;8.11;100.00
8280;BME280;8335;42.646;23.380;2023-04-04T01:49:22;143594.66;;;8.10;100.00
8280;BME280;8335;42.646;23.380;2023-04-04T01:51:50;143536.38;;;7.86;100.00
8280;BME280;8335;42.646;23.380;2023-04-04T01:54:17;143532.63;;;7.85;100.00
8280;BME280;8335;42.646;23.380;2023-04-04T01:56:44;143483.06;;;7.64;100.00
8280;BME280;8335;42.646;23.380;2023-04-04T01:59:12;143464.41;;;7.57;100.00
8280;BME280;8335;42.646;23.380;2023-04-04T02:01:39;143452.06;;;7.52;100.00
8280;BME280;8335;42.646;23.380;2023-04-04T02:04:06;143444.59;;;7.49;100.00
8280;BME280;8335;42.646;23.380;2023-04-04T02:06:35;143435.94;;;7.45;100.00
8280;BME280;8335;42.646;23.380;2023-04-04T02:09:02;143430.97;;;7.43;100.00
8280;BME280;8335;42.646;23.380;2023-04-04T02:11:29;143444.59;;;7.49;100.00
8280;BME280;8335;42.646;23.380;2023-04-04T02:13:56;143423.50;;;7.40;100.00
8280;BME280;8335;42.646;23.380;2023-04-04T02:16:24;143397.50;;;7.29;100.00
8280;BME280;8335;42.646;23.380;2023-04-04T02:18:51;143396.25;;;7.29;100.00
8280;BME280;8335;42.646;23.380;2023-04-04T02:21:17;143397.50;;;7.29;100.00
8280;BME280;8335;42.646;23.380;2023-04-04T02:23:44;143393.75;;;7.28;100.00
8280;BME280;8335;42.646;23.380;2023-04-04T02:26:11;143406.16;;;7.33;100.00
8280;BME280;8335;42.646;23.380;2023-04-04T02:28:38;143404.91;;;7.32;100.00
8280;BME280;8335;42.646;23.380;2023-04-04T02:31:04;143418.56;;;7.38;100.00
8280;BME280;8335;42.646;23.380;2023-04-04T02:33:33;143430.97;;;7.43;100.00
8280;BME280;8335;42.646;23.380;2023-04-04T02:36:00;143429.69;;;7.42;100.00
8280;BME280;8335;42.646;23.380;2023-04-04T02:38:27;143435.94;;;7.45;100.00
8280;BME280;8335;42.646;23.380;2023-04-04T02:40:53;143428.47;;;7.42;100.00
8280;BME280;8335;42.646;23.380;2023-04-04T02:43:20;143455.75;;;7.53;100.00
8280;BME280;8335;42.646;23.380;2023-04-04T02:45:47;143463.19;;;7.56;100.00
8280;BME280;8335;42.646;23.380;2023-04-04T02:48:14;143476.84;;;7.62;100.00
8280;BME280;8335;42.646;23.380;2023-04-04T02:50:42;143459.47;;;7.55;100.00
8280;BME280;8335;42.646;23.380;2023-04-04T02:53:09;143480.53;;;7.63;100.00
8280;BME280;8335;42.646;23.380;2023-04-04T02:55:36;143486.78;;;7.66;100.00
8280;BME280;8335;42.646;23.380;2023-04-04T02:58:02;143488.00;;;7.66;100.00
8280;BME280;8335;42.646;23.380;2023-04-04T03:00:29;143497.91;;;7.70;100.00
8280;BME280;8335;42.646;23.380;2023-04-04T03:02:56;143506.59;;;7.74;100.00
8280;BME280;8335;42.646;23.380;2023-04-04T03:05:23;143517.78;;;7.79;100.00
8280;BME280;8335;42.646;23.380;2023-04-04T03:07:53;143531.38;;;7.84;100.00
8280;BME280;8335;42.646;23.380;2023-04-04T03:10:21;143558.69;;;7.95;100.00
8280;BME280;8335;42.646;23.380;2023-04-04T03:12:48;143578.53;;;8.04;100.00
8280;BME280;8335;42.646;23.380;2023-04-04T03:15:15;143594.66;;;8.10;100.00
8280;BME280;8335;42.646;23.380;2023-04-04T03:17:42;143599.63;;;8.12;100.00
8280;BME280;8335;42.646;23.380;2023-04-04T03:20:10;143610.81;;;8.17;100.00
8280;BME280;8335;42.646;23.380;2023-04-04T03:22:37;143630.66;;;8.25;100.00
8280;BME280;8335;42.646;23.380;2023-04-04T03:25:06;143641.84;;;8.30;100.00
8280;BME280;8335;42.646;23.380;2023-04-04T03:27:32;143656.72;;;8.36;100.00
8280;BME280;8335;42.646;23.380;2023-04-04T03:29:59;143640.59;;;8.29;100.00
8280;BME280;8335;42.646;23.380;2023-04-04T03:32:27;143628.16;;;8.24;100.00
8280;BME280;8335;42.646;23.380;2023-04-04T03:34:53;143599.63;;;8.12;100.00
8280;BME280;8335;42.646;23.380;2023-04-04T03:37:20;143587.22;;;8.07;100.00
8280;BME280;8335;42.646;23.380;2023-04-04T03:39:47;143600.84;;;8.13;100.00
8280;BME280;8335;42.646;23.380;2023-04-04T03:42:15;143612.03;;;8.17;100.00
8280;BME280;8335;42.646;23.380;2023-04-04T03:44:42;143623.22;;;8.22;100.00
8280;BME280;8335;42.646;23.380;2023-04-04T03:47:09;143633.13;;;8.26;100.00
8280;BME280;8335;42.646;23.380;2023-04-04T03:49:35;143650.50;;;8.33;100.00
8280;BME280;8335;42.646;23.380;2023-04-04T03:52:02;143664.19;;;8.39;100.00
8280;BME280;8335;42.646;23.380;2023-04-04T03:54:29;143679.09;;;8.45;100.00
8280;BME280;8335;42.646;23.380;2023-04-04T03:56:57;143691.47;;;8.50;100.00
8280;BME280;8335;42.646;23.380;2023-04-04T03:59:28;143691.47;;;8.50;100.00
8280;BME280;8335;42.646;23.380;2023-04-04T04:01:54;143697.72;;;8.52;100.00
8280;BME280;8335;42.646;23.380;2023-04-04T04:04:21;143695.25;;;8.51;100.00
8280;BME280;8335;42.646;23.380;2023-04-04T04:06:48;143690.25;;;8.49;100.00
8280;BME280;8335;42.646;23.380;2023-04-04T04:09:15;143700.19;;;8.53;100.00
8280;BME280;8335;42.646;23.380;2023-04-04T04:11:43;143698.94;;;8.53;100.00
8280;BME280;8335;42.646;23.380;2023-04-04T04:14:10;143681.56;;;8.46;100.00
8280;BME280;8335;42.646;23.380;2023-04-04T04:16:39;143639.31;;;8.28;100.00
8280;BME280;8335;42.646;23.380;2023-04-04T04:19:06;143621.94;;;8.21;100.00
8280;BME280;8335;42.646;23.380;2023-04-04T04:21:33;143595.91;;;8.11;100.00
8280;BME280;8335;42.646;23.380;2023-04-04T04:24:00;143610.81;;;8.17;100.00
8280;BME280;8335;42.646;23.380;2023-04-04T04:26:26;143598.38;;;8.12;100.00
8280;BME280;8335;42.646;23.380;2023-04-04T04:28:53;143602.09;;;8.13;100.00
8280;BME280;8335;42.646;23.380;2023-04-04T04:31:20;143609.56;;;8.16;100.00
8280;BME280;8335;42.646;23.380;2023-04-04T04:33:48;143619.47;;;8.20;100.00
8280;BME280;8335;42.646;23.380;2023-04-04T04:36:14;143628.16;;;8.24;100.00
8280;BME280;8335;42.646;23.380;2023-04-04T04:38:41;143648.03;;;8.32;100.00
8280;BME280;8335;42.646;23.380;2023-04-04T04:41:08;143661.72;;;8.38;100.00
8280;BME280;8335;42.646;23.380;2023-04-04T04:43:35;143667.91;;;8.40;100.00
8280;BME280;8335;42.646;23.380;2023-04-04T04:46:02;143682.81;;;8.46;100.00
8280;BME280;8335;42.646;23.380;2023-04-04T04:48:29;143692.75;;;8.50;100.00
8280;BME280;8335;42.646;23.380;2023-04-04T04:50:57;143708.84;;;8.57;100.00
8280;BME280;8335;42.646;23.380;2023-04-04T04:53:24;143728.75;;;8.65;100.00
8280;BME280;8335;42.646;23.380;2023-04-04T04:55:50;143712.59;;;8.59;100.00
8280;BME280;8335;42.646;23.380;2023-04-04T04:58:17;143685.28;;;8.47;100.00
8280;BME280;8335;42.646;23.380;2023-04-04T05:00:48;143664.19;;;8.39;100.00
8280;BME280;8335;42.646;23.380;2023-04-04T05:03:17;143652.97;;;8.34;100.00
8280;BME280;8335;42.646;23.380;2023-04-04T05:05:44;143648.03;;;8.32;100.00
8280;BME280;8335;42.646;23.380;2023-04-04T05:08:13;143652.97;;;8.34;100.00
8280;BME280;8335;42.646;23.380;2023-04-04T05:10:40;143671.63;;;8.42;100.00
8280;BME280;8335;42.646;23.380;2023-04-04T05:13:07;143691.47;;;8.50;100.00
8280;BME280;8335;42.646;23.380;2023-04-04T05:15:34;143700.19;;;8.53;100.00
8280;BME280;8335;42.646;23.380;2023-04-04T05:18:01;143741.13;;;8.70;100.00
8280;BME280;8335;42.646;23.380;2023-04-04T05:20:28;143765.97;;;8.80;100.00
8280;BME280;8335;42.646;23.380;2023-04-04T05:22:55;143779.66;;;8.86;100.00
8280;BME280;8335;42.646;23.380;2023-04-04T05:25:23;143801.97;;;8.95;100.00
8280;BME280;8335;42.646;23.380;2023-04-04T05:27:51;143819.34;;;9.02;100.00
8280;BME280;8335;42.646;23.380;2023-04-04T05:30:20;143841.69;;;9.12;100.00
8280;BME280;8335;42.646;23.380;2023-04-04T05:32:46;143861.56;;;9.20;100.00
8280;BME280;8335;42.646;23.380;2023-04-04T05:35:13;143881.41;;;9.28;100.00
8280;BME280;8335;42.646;23.380;2023-04-04T05:37:40;143898.78;;;9.35;100.00
8280;BME280;8335;42.646;23.380;2023-04-04T05:40:07;143911.22;;;9.40;100.00
8280;BME280;8335;42.646;23.380;2023-04-04T05:42:36;143895.09;;;9.33;100.00
8280;BME280;8335;42.646;23.380;2023-04-04T05:45:04;143913.72;;;9.41;100.00
8280;BME280;8335;42.646;23.380;2023-04-04T05:47:30;143947.25;;;9.55;100.00
8280;BME280;8335;42.646;23.380;2023-04-04T05:49:57;143977.06;;;9.67;100.00
8280;BME280;8335;42.646;23.380;2023-04-04T05:52:24;144013.09;;;9.82;100.00
8280;BME280;8335;42.646;23.380;2023-04-04T05:54:51;144032.97;;;9.90;100.00
8280;BME280;8335;42.646;23.380;2023-04-04T05:57:17;144054.06;;;9.99;100.00
8280;BME280;8335;42.646;23.380;2023-04-04T05:59:46;144069.00;;;10.05;100.00
8280;BME280;8335;42.646;23.380;2023-04-04T06:02:13;144087.63;;;10.12;100.00
8280;BME280;8335;42.646;23.380;2023-04-04T06:04:39;144105.03;;;10.19;100.00
8280;BME280;8335;42.646;23.380;2023-04-04T06:07:06;144108.75;;;10.21;100.00
8280;BME280;8335;42.646;23.380;2023-04-04T06:09:33;144132.44;;;10.31;100.00
8280;BME280;8335;42.646;23.380;2023-04-04T06:12:00;144158.50;;;10.41;100.00
8280;BME280;8335;42.646;23.380;2023-04-04T06:14:28;144172.19;;;10.47;100.00
8280;BME280;8335;42.646;23.380;2023-04-04T06:16:57;144168.47;;;10.45;100.00
8280;BME280;8335;42.646;23.380;2023-04-04T06:19:24;144182.16;;;10.51;100.00
8280;BME280;8335;42.646;23.380;2023-04-04T06:21:51;144200.81;;;10.59;100.00
8280;BME280;8335;42.646;23.380;2023-04-04T06:24:18;144226.88;;;10.69;100.00
8280;BME280;8335;42.646;23.380;2023-04-04T06:26:44;144251.78;;;10.80;100.00
8280;BME280;8335;42.646;23.380;2023-04-04T06:29:15;144262.94;;;10.84;100.00
8280;BME280;8335;42.646;23.380;2023-04-04T06:31:42;144281.59;;;10.92;100.00
8280;BME280;8335;42.646;23.380;2023-04-04T06:34:10;144294.03;;;10.97;100.00
8280;BME280;8335;42.646;23.380;2023-04-04T06:36:37;144286.59;;;10.94;100.00
8280;BME280;8335;42.646;23.380;2023-04-04T06:39:04;144255.50;;;10.81;100.00
8280;BME280;8335;42.646;23.380;2023-04-04T06:41:30;144234.38;;;10.72;100.00
8280;BME280;8335;42.646;23.380;2023-04-04T06:43:57;144249.25;;;10.79;100.00
8280;BME280;8335;42.646;23.380;2023-04-04T06:46:24;144250.53;;;10.79;100.00
8280;BME280;8335;42.646;23.380;2023-04-04T06:48:52;144238.09;;;10.74;100.00
8280;BME280;8335;42.646;23.380;2023-04-04T06:51:20;144251.78;;;10.80;100.00
8280;BME280;8335;42.646;23.380;2023-04-04T06:53:47;144225.66;;;10.69;100.00
8280;BME280;8335;42.646;23.380;2023-04-04T06:56:14;144183.41;;;10.52;100.00
8280;BME280;8335;42.646;23.380;2023-04-04T06:58:41;144101.31;;;10.18;100.00
8280;BME280;8335;42.646;23.380;2023-04-04T07:01:08;144000.66;;;9.77;100.00
8280;BME280;8335;42.646;23.380;2023-04-04T07:03:36;143888.88;;;9.31;100.00
8280;BME280;8335;42.646;23.380;2023-04-04T07:06:03;143841.69;;;9.12;100.00
8280;BME280;8335;42.646;23.380;2023-04-04T07:08:31;143757.25;;;8.77;100.00
8280;BME280;8335;42.646;23.380;2023-04-04T07:10:58;143655.50;;;8.35;100.00
8280;BME280;8335;42.646;23.380;2023-04-04T07:13:25;143595.91;;;8.11;100.00
8280;BME280;8335;42.646;23.380;2023-04-04T07:15:52;143590.97;;;8.09;100.00
8280;BME280;8335;42.646;23.380;2023-04-04T07:18:19;143522.72;;;7.81;100.00
8280;BME280;8335;42.646;23.380;2023-04-04T07:20:46;143488.00;;;7.66;100.00
8280;BME280;8335;42.646;23.380;2023-04-04T07:23:13;143459.47;;;7.55;100.00
8280;BME280;8335;42.646;23.380;2023-04-04T07:25:42;143433.44;;;7.44;100.00
8280;BME280;8335;42.646;23.380;2023-04-04T07:28:09;143383.84;;;7.24;100.00
8280;BME280;8335;42.646;23.380;2023-04-04T07:30:36;143360.28;;;7.14;100.00
8280;BME280;8335;42.646;23.380;2023-04-04T07:33:03;143388.81;;;7.26;100.00
8280;BME280;8335;42.646;23.380;2023-04-04T07:35:30;143328.09;;;7.01;100.00
8280;BME280;8335;42.646;23.380;2023-04-04T07:37:57;143246.28;;;6.67;100.00
8280;BME280;8335;42.646;23.380;2023-04-04T07:40:23;143276.03;;;6.79;100.00
8280;BME280;8335;42.646;23.380;2023-04-04T07:42:52;143240.09;;;6.65;100.00
8280;BME280;8335;42.646;23.380;2023-04-04T07:45:19;143210.34;;;6.52;100.00
8280;BME280;8335;42.646;23.380;2023-04-04T07:47:47;143112.47;;;6.12;100.00
8280;BME280;8335;42.646;23.380;2023-04-04T07:50:15;143165.75;;;6.34;100.00
8280;BME280;8335;42.646;23.380;2023-04-04T07:52:47;143119.94;;;6.15;100.00
8280;BME280;8335;42.646;23.380;2023-04-04T07:55:15;143133.53;;;6.21;100.00
8280;BME280;8335;42.646;23.380;2023-04-04T07:57:43;143107.53;;;6.10;100.00
8280;BME280;8335;42.646;23.380;2023-04-04T08:00:12;143179.38;;;6.40;100.00
8280;BME280;8335;42.646;23.380;2023-04-04T08:02:39;143162.03;;;6.32;100.00
8280;BME280;8335;42.646;23.380;2023-04-04T08:05:07;143169.44;;;6.35;100.00
8280;BME280;8335;42.646;23.380;2023-04-04T08:07:34;143147.16;;;6.26;100.00
8280;BME280;8335;42.646;23.380;2023-04-04T08:10:01;143142.22;;;6.24;100.00
8280;BME280;8335;42.646;23.380;2023-04-04T08:12:28;143088.97;;;6.02;100.00
8280;BME280;8335;42.646;23.380;2023-04-04T08:14:55;143081.50;;;5.99;100.00
8280;BME280;8335;42.646;23.380;2023-04-04T08:17:23;143064.16;;;5.92;100.00
8280;BME280;8335;42.646;23.380;2023-04-04T08:19:50;143012.13;;;5.71;100.00
8280;BME280;8335;42.646;23.380;2023-04-04T08:22:16;143007.19;;;5.69;100.00
8280;BME280;8335;42.646;23.380;2023-04-04T08:24:43;142962.66;;;5.50;100.00
8280;BME280;8335;42.646;23.380;2023-04-04T08:27:10;142970.06;;;5.53;100.00
8280;BME280;8335;42.646;23.380;2023-04-04T08:29:39;142929.22;;;5.37;100.00
8280;BME280;8335;42.646;23.380;2023-04-04T08:32:06;142934.16;;;5.39;100.00
8280;BME280;8335;42.646;23.380;2023-04-04T08:34:34;142940.31;;;5.41;100.00
8280;BME280;8335;42.646;23.380;2023-04-04T08:37:01;142903.19;;;5.26;100.00
8280;BME280;8335;42.646;23.380;2023-04-04T08:39:28;142884.66;;;5.18;100.00
8280;BME280;8335;42.646;23.380;2023-04-04T08:42:01;142866.09;;;5.11;100.00
8280;BME280;8335;42.646;23.380;2023-04-04T08:44:30;142847.53;;;5.03;100.00
8280;BME280;8335;42.646;23.380;2023-04-04T08:46:58;142859.91;;;5.08;100.00
8280;BME280;8335;42.646;23.380;2023-04-04T08:49:27;142845.06;;;5.02;100.00
8280;BME280;8335;42.646;23.380;2023-04-04T08:51:57;142832.69;;;4.97;100.00
8280;BME280;8335;42.646;23.380;2023-04-04T08:54:25;142804.19;;;4.85;100.00
8280;BME280;8335;42.646;23.380;2023-04-04T08:56:54;142794.34;;;4.81;100.00
8280;BME280;8335;42.646;23.380;2023-04-04T08:59:21;142799.25;;;4.83;100.00
8280;BME280;8335;42.646;23.380;2023-04-04T09:01:48;142802.97;;;4.85;100.00
8280;BME280;8335;42.646;23.380;2023-04-04T09:04:18;142817.81;;;4.91;100.00
8280;BME280;8335;42.646;23.380;2023-04-04T09:06:47;142805.47;;;4.86;100.00
8280;BME280;8335;42.646;23.380;2023-04-04T09:09:16;142647.13;;;4.21;100.00
8280;BME280;8335;42.646;23.380;2023-04-04T09:11:45;142831.44;;;4.96;100.00
8280;BME280;8335;42.646;23.380;2023-04-04T09:14:13;142816.59;;;4.90;100.00
8280;BME280;8335;42.646;23.380;2023-04-04T09:16:39;142805.47;;;4.86;100.00
8280;BME280;8335;42.646;23.380;2023-04-04T09:19:08;142798.03;;;4.83;100.00
8280;BME280;8335;42.646;23.380;2023-04-04T09:21:36;142799.25;;;4.83;100.00
8280;BME280;8335;42.646;23.380;2023-04-04T09:24:03;142788.16;;;4.79;100.00
8280;BME280;8335;42.646;23.380;2023-04-04T09:29:24;142784.41;;;4.77;100.00
8280;BME280;8335;42.646;23.380;2023-04-04T09:31:51;142786.88;;;4.78;100.00
8280;BME280;8335;42.646;23.380;2023-04-04T09:34:18;142805.47;;;4.86;100.00
8280;BME280;8335;42.646;23.380;2023-04-04T09:36:45;142838.84;;;5.00;100.00
8280;BME280;8335;42.646;23.380;2023-04-04T09:39:13;142847.53;;;5.03;100.00
8280;BME280;8335;42.646;23.380;2023-04-04T09:41:41;142882.19;;;5.17;100.00
8280;BME280;8335;42.646;23.380;2023-04-04T09:44:09;142934.16;;;5.39;100.00
8280;BME280;8335;42.646;23.380;2023-04-04T09:46:38;142975.00;;;5.56;100.00
8280;BME280;8335;42.646;23.380;2023-04-04T09:49:08;143039.38;;;5.82;100.00
8280;BME280;8335;42.646;23.380;2023-04-04T09:51:36;143076.56;;;5.97;100.00
8280;BME280;8335;42.646;23.380;2023-04-04T09:54:08;143101.38;;;6.07;100.00
8280;BME280;8335;42.646;23.380;2023-04-04T09:56:35;143171.97;;;6.37;100.00
8280;BME280;8335;42.646;23.380;2023-04-04T09:59:05;143150.88;;;6.28;100.00
8280;BME280;8335;42.646;23.380;2023-04-04T10:01:32;143134.75;;;6.21;100.00
8280;BME280;8335;42.646;23.380;2023-04-04T10:04:02;143095.13;;;6.05;100.00
8280;BME280;8335;42.646;23.380;2023-04-04T10:06:30;143069.16;;;5.94;100.00
8280;BME280;8335;42.646;23.380;2023-04-04T10:08:57;143049.31;;;5.86;100.00
8280;BME280;8335;42.646;23.380;2023-04-04T10:11:28;143004.72;;;5.68;100.00
8280;BME280;8335;42.646;23.380;2023-04-04T10:13:56;142981.19;;;5.58;100.00
8280;BME280;8335;42.646;23.380;2023-04-04T10:16:23;143013.34;;;5.71;100.00
8280;BME280;8335;42.646;23.380;2023-04-04T10:18:51;143039.38;;;5.82;100.00
8280;BME280;8335;42.646;23.380;2023-04-04T10:21:20;143004.72;;;5.68;100.00
8280;BME280;8335;42.646;23.380;2023-04-04T10:23:48;142992.31;;;5.63;100.00
8280;BME280;8335;42.646;23.380;2023-04-04T10:26:15;142989.84;;;5.62;100.00
8280;BME280;8335;42.646;23.380;2023-04-04T10:28:42;142949.00;;;5.45;100.00
8280;BME280;8335;42.646;23.380;2023-04-04T10:31:15;142942.78;;;5.42;100.00
8280;BME280;8335;42.646;23.380;2023-04-04T10:33:47;142942.78;;;5.42;100.00
8280;BME280;8335;42.646;23.380;2023-04-04T10:36:15;142911.88;;;5.30;100.00
8280;BME280;8335;42.646;23.380;2023-04-04T10:38:56;142901.97;;;5.25;99.91
8280;BME280;8335;42.646;23.380;2023-04-04T10:41:26;142925.47;;;5.35;100.00
8280;BME280;8335;42.646;23.380;2023-04-04T10:43:59;142925.47;;;5.35;99.86
8280;BME280;8335;42.646;23.380;2023-04-04T10:46:30;142937.84;;;5.40;99.09
8280;BME280;8335;42.646;23.380;2023-04-04T10:48:59;142903.19;;;5.26;98.88
8280;BME280;8335;42.646;23.380;2023-04-04T10:51:29;142910.66;;;5.29;100.00
8280;BME280;8335;42.646;23.380;2023-04-04T10:53:58;142929.22;;;5.37;98.16
8280;BME280;8335;42.646;23.380;2023-04-04T10:56:25;142929.22;;;5.37;97.88
8280;BME280;8335;42.646;23.380;2023-04-04T10:59:08;142916.81;;;5.32;96.96
8280;BME280;8335;42.646;23.380;2023-04-04T11:01:49;142904.44;;;5.27;97.51
8280;BME280;8335;42.646;23.380;2023-04-04T11:04:17;142906.91;;;5.28;97.16
8280;BME280;8335;42.646;23.380;2023-04-04T11:07:03;142919.28;;;5.33;98.42
8280;BME280;8335;42.646;23.380;2023-04-04T11:09:53;142929.22;;;5.37;97.02
8280;BME280;8335;42.646;23.380;2023-04-04T11:12:27;142887.09;;;5.19;97.80
8280;BME280;8335;42.646;23.380;2023-04-04T11:15:05;142913.13;;;5.30;97.61
8280;BME280;8335;42.646;23.380;2023-04-04T11:17:54;142942.78;;;5.42;97.81
8280;BME280;8335;42.646;23.380;2023-04-04T11:20:23;142924.22;;;5.35;96.73
8280;BME280;8335;42.646;23.380;2023-04-04T11:22:50;142936.63;;;5.40;96.19
8280;BME280;8335;42.646;23.380;2023-04-04T11:25:30;142911.88;;;5.30;96.65
8280;BME280;8335;42.646;23.380;2023-04-04T11:27:57;142915.59;;;5.31;97.36
8280;BME280;8335;42.646;23.380;2023-04-04T11:30:25;142925.47;;;5.35;97.29
8280;BME280;8335;42.646;23.380;2023-04-04T11:32:56;142949.00;;;5.45;96.02
8280;BME280;8335;42.646;23.380;2023-04-04T11:35:24;142941.56;;;5.42;96.93
8280;BME280;8335;42.646;23.380;2023-04-04T11:37:59;142918.06;;;5.32;97.50
8280;BME280;8335;42.646;23.380;2023-04-04T11:40:38;142900.72;;;5.25;96.85
8280;BME280;8335;42.646;23.380;2023-04-04T11:43:09;142911.88;;;5.30;96.96
8280;BME280;8335;42.646;23.380;2023-04-04T11:45:40;142919.28;;;5.33;97.53
8280;BME280;8335;42.646;23.380;2023-04-04T11:48:08;142911.88;;;5.30;98.59
8280;BME280;8335;42.646;23.380;2023-04-04T11:50:38;142888.34;;;5.20;98.70
8280;BME280;8335;42.646;23.380;2023-04-04T11:53:05;142927.97;;;5.36;99.57
8280;BME280;8335;42.646;23.380;2023-04-04T11:55:39;142956.41;;;5.48;99.19
8280;BME280;8335;42.646;23.380;2023-04-04T11:58:08;142905.66;;;5.27;99.11
8280;BME280;8335;42.646;23.380;2023-04-04T12:00:36;142908.16;;;5.28;99.97
8280;BME280;8335;42.646;23.380;2023-04-04T12:03:04;142893.31;;;5.22;99.59
8280;BME280;8335;42.646;23.380;2023-04-04T12:05:33;142879.72;;;5.16;100.00
8280;BME280;8335;42.646;23.380;2023-04-04T12:08:00;142872.25;;;5.13;100.00
8280;BME280;8335;42.646;23.380;2023-04-04T12:10:28;142847.53;;;5.03;100.00
8280;BME280;8335;42.646;23.380;2023-04-04T12:12:59;142861.16;;;5.09;100.00
8280;BME280;8335;42.646;23.380;2023-04-04T12:15:27;142867.31;;;5.11;100.00
8280;BME280;8335;42.646;23.380;2023-04-04T12:17:54;142856.16;;;5.07;100.00
8280;BME280;8335;42.646;23.380;2023-04-04T12:20:22;142866.09;;;5.11;99.40
8280;BME280;8335;42.646;23.380;2023-04-04T12:22:49;142862.38;;;5.09;99.54
8280;BME280;8335;42.646;23.380;2023-04-04T12:25:18;142850.00;;;5.04;100.00
8280;BME280;8335;42.646;23.380;2023-04-04T12:27:45;142828.97;;;4.95;99.93
8280;BME280;8335;42.646;23.380;2023-04-04T12:30:15;142800.50;;;4.84;100.00
8280;BME280;8335;42.646;23.380;2023-04-04T12:32:42;142806.72;;;4.86;100.00
8280;BME280;8335;42.646;23.380;2023-04-04T12:35:10;142790.63;;;4.80;99.80
8280;BME280;8335;42.646;23.380;2023-04-04T12:37:37;142789.41;;;4.79;100.00
8280;BME280;8335;42.646;23.380;2023-04-04T12:40:05;142774.53;;;4.73;100.00
8280;BME280;8335;42.646;23.380;2023-04-04T12:42:33;142772.06;;;4.72;100.00
8280;BME280;8335;42.646;23.380;2023-04-04T12:45:01;142725.06;;;4.53;100.00
8280;BME280;8335;42.646;23.380;2023-04-04T12:47:30;142690.44;;;4.38;100.00
8280;BME280;8335;42.646;23.380;2023-04-04T12:49:57;142706.50;;;4.45;100.00
8280;BME280;8335;42.646;23.380;2023-04-04T12:52:27;142699.06;;;4.42;100.00
8280;BME280;8335;42.646;23.380;2023-04-04T12:54:58;142678.06;;;4.33;100.00
8280;BME280;8335;42.646;23.380;2023-04-04T12:57:26;142661.97;;;4.27;100.00
8280;BME280;8335;42.646;23.380;2023-04-04T12:59:54;142660.75;;;4.26;100.00
8280;BME280;8335;42.646;23.380;2023-04-04T13:02:21;142642.19;;;4.19;100.00
8280;BME280;8335;42.646;23.380;2023-04-04T13:04:53;142639.72;;;4.18;100.00
8280;BME280;8335;42.646;23.380;2023-04-04T13:07:21;142666.94;;;4.29;100.00